createdAt,value
2022-12-03T00:04:50.646Z,7.43
2022-12-03T00:09:52.263Z,8.15
2022-12-03T00:14:53.753Z,8.95
2022-12-03T00:19:55.198Z,8.10
2022-12-03T00:24:56.542Z,8.45
2022-12-03T00:29:57.914Z,8.10
2022-12-03T00:34:59.186Z,8.13
2022-12-03T00:40:01.004Z,8.18
2022-12-03T00:45:02.399Z,7.78
2022-12-03T00:50:04.109Z,7.97
2022-12-03T00:55:05.606Z,8.60
2022-12-03T01:00:07.270Z,7.97
2022-12-03T01:05:08.936Z,7.70
2022-12-03T01:10:10.598Z,8.57
2022-12-03T01:15:11.873Z,8.10
2022-12-03T01:20:13.485Z,8.33
2022-12-03T01:25:14.870Z,8.52
2022-12-03T01:30:16.120Z,8.07
2022-12-03T01:35:17.419Z,8.57
2022-12-03T01:40:19.691Z,7.75
2022-12-03T01:45:22.412Z,8.00
2022-12-03T01:50:29.642Z,8.45
2022-12-03T01:55:30.880Z,9.60
2022-12-03T02:00:32.215Z,8.27
2022-12-03T02:05:34.064Z,8.00
2022-12-03T02:10:37.588Z,8.20
2022-12-03T02:15:39.593Z,8.35
2022-12-03T02:20:44.768Z,8.40
2022-12-03T02:25:46.184Z,8.15
2022-12-03T02:30:47.444Z,8.20
2022-12-03T02:35:48.913Z,7.63
2022-12-03T02:40:52.708Z,8.05
2022-12-03T02:45:56.126Z,7.57
2022-12-03T02:50:59.282Z,7.40
2022-12-03T02:56:01.495Z,7.63
2022-12-03T03:01:04.230Z,8.07
2022-12-03T03:06:06.444Z,8.00
2022-12-03T03:11:07.806Z,7.53
2022-12-03T03:16:09.199Z,7.90
2022-12-03T03:21:10.556Z,8.00
2022-12-03T03:26:13.099Z,7.40
2022-12-03T03:31:15.785Z,8.63
2022-12-03T03:36:17.279Z,7.53
2022-12-03T03:41:19.777Z,7.72
2022-12-03T03:46:21.738Z,7.65
2022-12-03T03:51:23.156Z,7.87
2022-12-03T03:56:24.479Z,8.00
2022-12-03T04:01:26.710Z,7.90
2022-12-03T04:06:28.189Z,7.50
2022-12-03T04:11:48.126Z,8.38
2022-12-03T04:16:49.369Z,8.33
2022-12-03T04:22:10.991Z,8.30
2022-12-03T04:27:30.980Z,7.65
2022-12-03T04:32:50.778Z,8.68
2022-12-03T04:37:52.031Z,7.53
2022-12-03T04:42:53.311Z,8.27
2022-12-03T04:47:54.530Z,7.65
2022-12-03T04:52:55.756Z,7.90
2022-12-03T04:57:57.021Z,7.80
2022-12-03T05:02:58.423Z,7.65
2022-12-03T05:07:59.865Z,7.53
2022-12-03T05:13:01.202Z,8.07
2022-12-03T05:18:02.498Z,8.25
2022-12-03T05:23:03.843Z,8.07
2022-12-03T05:28:05.421Z,7.55
2022-12-03T05:33:06.676Z,9.47
2022-12-03T05:38:07.944Z,9.25
2022-12-03T05:43:09.262Z,7.88
2022-12-03T05:48:12.312Z,8.68
2022-12-03T05:53:14.078Z,9.00
2022-12-03T05:58:15.355Z,8.70
2022-12-03T06:03:16.693Z,8.43
2022-12-03T06:08:18.029Z,9.75
2022-12-03T06:13:19.967Z,8.63
2022-12-03T06:18:21.195Z,9.07
2022-12-03T06:23:22.485Z,9.07
2022-12-03T06:28:23.751Z,8.75
2022-12-03T06:33:24.984Z,9.18
2022-12-03T06:38:26.374Z,10.27
2022-12-03T06:43:27.652Z,10.13
2022-12-03T06:48:28.913Z,10.33
2022-12-03T06:53:30.205Z,10.63
2022-12-03T06:58:31.493Z,10.50
2022-12-03T07:03:32.758Z,10.63
2022-12-03T07:08:34.017Z,10.48
2022-12-03T07:13:35.283Z,11.50
2022-12-03T07:18:36.605Z,10.73
2022-12-03T07:23:37.870Z,11.20
2022-12-03T07:28:39.144Z,11.15
2022-12-03T07:33:40.467Z,11.15
2022-12-03T07:38:41.704Z,11.90
2022-12-03T07:43:44.721Z,11.27
2022-12-03T07:48:46.004Z,11.20
2022-12-03T07:53:47.273Z,11.85
2022-12-03T07:58:48.575Z,12.60
2022-12-03T08:03:49.856Z,11.40
2022-12-03T08:08:51.099Z,11.48
2022-12-03T08:13:52.371Z,13.20
2022-12-03T08:18:54.764Z,13.43
2022-12-03T08:23:56.866Z,11.68
2022-12-03T08:28:58.102Z,14.40
2022-12-03T08:34:06.378Z,12.68
2022-12-03T08:39:31.070Z,13.18
2022-12-03T08:44:36.625Z,12.90
2022-12-03T08:49:37.926Z,14.40
2022-12-03T08:54:39.249Z,13.40
2022-12-03T08:59:45.324Z,14.23
2022-12-03T09:04:47.314Z,13.40
2022-12-03T09:09:48.547Z,13.60
2022-12-03T09:14:49.832Z,12.75
2022-12-03T09:19:51.125Z,13.63
2022-12-03T09:24:52.734Z,13.60
2022-12-03T09:29:54.093Z,14.43
2022-12-03T09:34:55.731Z,13.50
2022-12-03T09:39:57.395Z,14.40
2022-12-03T09:44:58.712Z,12.83
2022-12-03T09:49:59.999Z,13.15
2022-12-03T09:55:21.883Z,12.80
2022-12-03T10:00:24.847Z,13.75
2022-12-03T10:05:26.243Z,13.80
2022-12-03T10:10:27.498Z,13.83
2022-12-03T10:15:29.137Z,13.95
2022-12-03T10:20:30.387Z,14.63
2022-12-03T10:25:32.140Z,13.25
2022-12-03T10:30:33.456Z,13.80
2022-12-03T10:35:39.095Z,13.20
2022-12-03T10:40:40.444Z,14.95
2022-12-03T10:45:42.547Z,13.23
2022-12-03T10:50:54.049Z,14.23
2022-12-03T10:55:59.626Z,13.93
2022-12-03T11:01:03.461Z,13.60
2022-12-03T11:06:05.024Z,14.65
2022-12-03T11:11:07.909Z,14.38
2022-12-03T11:16:09.249Z,14.32
2022-12-03T11:21:11.733Z,13.43
2022-12-03T11:26:18.578Z,13.00
2022-12-03T11:31:38.822Z,12.90
2022-12-03T11:37:01.880Z,13.60
2022-12-03T11:42:26.296Z,13.30
2022-12-03T11:47:27.637Z,13.57
2022-12-03T11:52:42.531Z,13.53
2022-12-03T11:57:43.787Z,14.48
2022-12-03T12:02:45.554Z,13.52
2022-12-03T12:07:49.573Z,12.02
2022-12-03T12:12:54.883Z,14.55
2022-12-03T12:17:56.583Z,12.73
2022-12-03T12:23:17.778Z,12.02
2022-12-03T12:28:19.049Z,10.88
2022-12-03T12:33:23.232Z,10.48
2022-12-03T12:38:24.689Z,9.98
2022-12-03T12:43:27.018Z,9.50
2022-12-03T12:48:30.976Z,9.45
2022-12-03T12:53:33.819Z,8.45
2022-12-03T12:58:35.818Z,8.90
2022-12-03T13:03:38.267Z,8.93
2022-12-03T13:08:42.679Z,9.80
2022-12-03T13:13:44.539Z,9.52
2022-12-03T13:18:53.073Z,9.98
2022-12-03T13:23:55.386Z,10.30
2022-12-03T13:28:57.679Z,11.15
2022-12-03T13:34:00.274Z,11.10
2022-12-03T13:39:02.056Z,10.90
2022-12-03T13:44:10.754Z,9.85
2022-12-03T13:49:22.041Z,10.90
2022-12-03T13:54:26.107Z,9.80
2022-12-03T13:59:27.366Z,9.83
2022-12-03T14:04:28.688Z,9.35
2022-12-03T14:09:30.230Z,10.48
2022-12-03T14:14:31.508Z,10.07
2022-12-03T14:19:32.757Z,9.70
2022-12-03T14:24:33.989Z,9.67
2022-12-03T14:29:35.304Z,9.15
2022-12-03T14:34:36.520Z,10.70
2022-12-03T14:39:37.966Z,10.20
2022-12-03T14:44:39.674Z,9.93
2022-12-03T14:49:41.006Z,10.43
2022-12-03T14:54:42.871Z,12.13
2022-12-03T14:59:44.548Z,10.38
2022-12-03T15:04:45.778Z,9.05
2022-12-03T15:09:47.073Z,10.95
2022-12-03T15:14:48.556Z,10.30
2022-12-03T15:19:49.774Z,9.65
2022-12-03T15:24:51.005Z,9.93
2022-12-03T15:29:52.532Z,10.32
2022-12-03T15:34:54.148Z,9.93
2022-12-03T15:39:58.712Z,11.10
2022-12-03T15:45:00.235Z,10.35
2022-12-03T15:50:01.502Z,11.30
2022-12-03T15:55:02.754Z,10.20
2022-12-03T16:00:04.888Z,11.57
2022-12-03T16:05:07.992Z,10.47
2022-12-03T16:10:10.349Z,10.48
2022-12-03T16:15:11.658Z,10.35
2022-12-03T16:20:13.044Z,11.65
2022-12-03T16:25:14.542Z,10.80
2022-12-03T16:30:16.023Z,10.60
2022-12-03T16:35:17.425Z,10.80
2022-12-03T16:40:18.685Z,10.25
2022-12-03T16:45:22.748Z,10.15
2022-12-03T16:50:29.394Z,10.73
2022-12-03T16:55:31.320Z,11.33
2022-12-03T17:00:32.582Z,10.20
2022-12-03T17:05:33.883Z,11.80
2022-12-03T17:10:35.233Z,10.65
2022-12-03T17:15:36.627Z,10.65
2022-12-03T17:20:37.990Z,10.90
2022-12-03T17:25:39.279Z,14.05
2022-12-03T17:30:40.590Z,12.82
2022-12-03T17:35:42.211Z,11.68
2022-12-03T17:40:43.479Z,10.93
2022-12-03T17:45:44.766Z,12.57
2022-12-03T17:50:46.052Z,11.07
2022-12-03T17:55:47.335Z,10.90
2022-12-03T18:00:48.586Z,10.50
2022-12-03T18:05:49.866Z,10.15
2022-12-03T18:10:51.127Z,10.30
2022-12-03T18:15:52.421Z,9.82
2022-12-03T18:20:53.839Z,11.77
2022-12-03T18:25:55.112Z,11.68
2022-12-03T18:30:56.496Z,10.65
2022-12-03T18:35:58.045Z,9.90
2022-12-03T18:40:59.416Z,10.15
2022-12-03T18:46:31.153Z,9.48
2022-12-03T18:51:31.905Z,10.20
2022-12-03T18:56:33.166Z,9.85
2022-12-03T19:01:34.962Z,9.57
2022-12-03T19:06:36.261Z,10.63
2022-12-03T19:11:37.574Z,10.75
2022-12-03T19:16:39.780Z,9.07
2022-12-03T19:21:41.057Z,9.80
2022-12-03T19:26:42.395Z,10.17
2022-12-03T19:31:43.755Z,10.02
2022-12-03T19:36:45.543Z,10.63
2022-12-03T19:41:46.897Z,11.25
2022-12-03T19:46:51.061Z,10.32
2022-12-03T19:51:52.784Z,11.90
2022-12-03T19:56:54.056Z,10.20
2022-12-03T20:01:55.454Z,10.57
2022-12-03T20:06:56.798Z,10.57
2022-12-03T20:11:58.186Z,10.68
2022-12-03T20:16:59.549Z,11.07
2022-12-03T20:22:02.730Z,11.10
2022-12-03T20:27:04.437Z,11.48
2022-12-03T20:32:06.984Z,10.85
2022-12-03T20:37:08.359Z,10.52
2022-12-03T20:42:12.850Z,10.83
2022-12-03T20:47:15.326Z,12.00
2022-12-03T20:52:16.675Z,11.43
2022-12-03T20:57:17.945Z,12.57
2022-12-03T21:02:19.329Z,11.40
2022-12-03T21:07:20.701Z,12.10
2022-12-03T21:12:22.003Z,12.38
2022-12-03T21:17:23.618Z,12.07
2022-12-03T21:22:24.927Z,11.95
2022-12-03T21:27:26.170Z,11.73
2022-12-03T21:32:27.411Z,11.47
2022-12-03T21:37:28.740Z,12.70
2022-12-03T21:42:36.850Z,11.75
2022-12-03T21:47:38.739Z,12.18
2022-12-03T21:52:40.475Z,10.15
2022-12-03T21:57:41.747Z,11.10
2022-12-03T22:02:43.293Z,10.35
2022-12-03T22:07:44.617Z,11.68
2022-12-03T22:12:46.007Z,10.93
2022-12-03T22:17:47.422Z,9.52
2022-12-03T22:22:48.705Z,10.77
2022-12-03T22:27:50.103Z,10.18
2022-12-03T22:32:51.398Z,10.05
2022-12-03T22:37:52.739Z,9.85
2022-12-03T22:42:54.032Z,9.68
2022-12-03T22:47:55.272Z,10.50
2022-12-03T22:52:56.561Z,9.93
2022-12-03T22:57:57.802Z,9.02
2022-12-03T23:02:59.169Z,9.10
2022-12-03T23:08:00.559Z,9.05
2022-12-03T23:13:02.052Z,9.27
2022-12-03T23:18:03.713Z,8.35
2022-12-03T23:23:04.967Z,8.50
2022-12-03T23:28:06.462Z,8.80
2022-12-03T23:33:10.314Z,7.75
2022-12-03T23:38:11.587Z,8.57
2022-12-03T23:43:12.871Z,8.07
2022-12-03T23:48:14.096Z,8.32
2022-12-03T23:53:18.156Z,8.27
2022-12-03T23:58:19.439Z,8.48
